createdAt,value
2017-10-26T00:00:18.851Z,17.57
2017-10-26T00:02:46.333Z,10.83
2017-10-26T00:05:13.804Z,14.17
2017-10-26T00:07:41.271Z,12.90
2017-10-26T00:10:08.754Z,15.23
2017-10-26T00:12:36.235Z,11.47
2017-10-26T00:15:04.050Z,14.83
2017-10-26T00:17:31.507Z,13.40
2017-10-26T00:19:58.967Z,11.47
2017-10-26T00:22:26.443Z,9.17
2017-10-26T00:24:53.934Z,14.63
2017-10-26T00:27:21.684Z,12.77
2017-10-26T00:29:49.188Z,9.90
2017-10-26T00:32:16.645Z,9.30
2017-10-26T00:34:44.097Z,6.93
2017-10-26T00:37:11.559Z,8.27
2017-10-26T00:39:39.025Z,12.00
2017-10-26T00:42:06.490Z,9.13
2017-10-26T00:44:33.967Z,11.00
2017-10-26T00:47:01.422Z,9.33
2017-10-26T00:49:29.648Z,9.00
2017-10-26T00:51:57.101Z,8.20
2017-10-26T00:54:24.621Z,15.13
2017-10-26T00:56:52.839Z,15.50
2017-10-26T00:59:20.317Z,24.83
2017-10-26T01:01:47.782Z,16.30
2017-10-26T01:04:15.240Z,19.27
2017-10-26T01:06:42.735Z,25.33
2017-10-26T01:09:10.255Z,29.33
2017-10-26T01:11:37.726Z,26.57
2017-10-26T01:14:05.208Z,27.07
2017-10-26T01:16:32.684Z,55.23
2017-10-26T01:19:00.190Z,51.20
2017-10-26T01:21:27.666Z,39.50
2017-10-26T01:23:55.148Z,59.73
2017-10-26T01:26:22.661Z,42.57
2017-10-26T01:28:50.157Z,64.20
2017-10-26T01:31:17.657Z,51.27
2017-10-26T01:33:45.134Z,44.80
2017-10-26T01:36:12.616Z,45.87
2017-10-26T01:38:40.092Z,79.87
2017-10-26T01:41:07.583Z,65.30
2017-10-26T01:43:35.059Z,56.17
2017-10-26T01:46:02.546Z,53.77
2017-10-26T01:48:30.025Z,49.77
2017-10-26T01:50:57.537Z,44.57
2017-10-26T01:53:25.020Z,64.33
2017-10-26T01:55:52.497Z,43.63
2017-10-26T01:58:20.008Z,49.00
2017-10-26T02:00:47.487Z,36.97
2017-10-26T02:03:14.965Z,49.60
2017-10-26T02:05:42.450Z,66.87
2017-10-26T02:08:09.920Z,81.83
2017-10-26T02:10:37.414Z,68.33
2017-10-26T02:13:04.884Z,47.47
2017-10-26T02:15:32.388Z,79.93
2017-10-26T02:17:59.861Z,130.43
2017-10-26T02:20:27.345Z,112.50
2017-10-26T02:22:55.571Z,90.57
2017-10-26T02:25:23.052Z,218.00
2017-10-26T02:27:50.548Z,107.23
2017-10-26T02:30:30.049Z,47.33
2017-10-26T02:32:57.511Z,108.23
2017-10-26T02:35:24.993Z,138.07
2017-10-26T02:37:52.506Z,66.57
2017-10-26T02:40:20.003Z,64.73
2017-10-26T02:42:47.515Z,46.70
2017-10-26T02:45:14.990Z,57.57
2017-10-26T02:47:42.493Z,58.07
2017-10-26T02:50:09.971Z,61.90
2017-10-26T02:52:37.465Z,61.73
2017-10-26T02:55:04.931Z,107.37
2017-10-26T02:57:32.405Z,95.20
2017-10-26T02:59:59.886Z,63.37
2017-10-26T03:02:27.376Z,54.67
2017-10-26T03:04:54.854Z,84.73
2017-10-26T03:07:22.358Z,46.87
2017-10-26T03:09:49.875Z,111.53
2017-10-26T03:12:17.321Z,77.07
2017-10-26T03:14:45.609Z,84.97
2017-10-26T03:17:13.117Z,54.77
2017-10-26T03:19:40.623Z,75.37
2017-10-26T03:22:08.098Z,67.13
2017-10-26T03:24:36.349Z,71.77
2017-10-26T03:27:03.863Z,57.23
2017-10-26T03:29:31.359Z,79.13
2017-10-26T03:31:58.829Z,43.13
2017-10-26T03:34:26.342Z,74.70
2017-10-26T03:36:53.816Z,99.13
2017-10-26T03:39:21.310Z,110.27
2017-10-26T03:41:49.543Z,67.43
2017-10-26T03:44:17.017Z,97.07
2017-10-26T03:46:44.484Z,59.93
2017-10-26T03:49:11.991Z,55.17
2017-10-26T03:51:40.057Z,52.00
2017-10-26T03:54:07.548Z,91.43
2017-10-26T03:56:35.023Z,73.70
2017-10-26T03:59:02.474Z,52.50
2017-10-26T04:01:29.977Z,68.33
2017-10-26T04:03:57.457Z,48.83
2017-10-26T04:06:24.983Z,49.63
2017-10-26T04:08:53.217Z,42.77
2017-10-26T04:11:20.993Z,29.13
2017-10-26T04:13:48.458Z,39.47
2017-10-26T04:16:15.944Z,67.87
2017-10-26T04:18:43.461Z,88.10
2017-10-26T04:21:10.944Z,113.80
2017-10-26T04:23:39.259Z,109.17
2017-10-26T04:26:06.735Z,107.23
2017-10-26T04:28:34.215Z,62.50
2017-10-26T04:31:01.698Z,135.77
2017-10-26T04:33:29.931Z,96.83
2017-10-26T04:35:57.440Z,64.10
2017-10-26T04:38:24.953Z,62.67
2017-10-26T04:40:52.408Z,33.67
2017-10-26T04:43:19.912Z,59.63
2017-10-26T04:45:47.408Z,32.10
2017-10-26T04:48:14.891Z,23.83
2017-10-26T04:50:42.487Z,81.67
2017-10-26T04:53:09.962Z,121.40
2017-10-26T04:55:37.686Z,175.30
2017-10-26T04:58:05.156Z,178.53
2017-10-26T05:00:33.396Z,115.97
2017-10-26T05:03:00.905Z,125.93
2017-10-26T05:05:28.376Z,227.07
2017-10-26T05:07:55.866Z,166.33
2017-10-26T05:10:23.346Z,134.20
2017-10-26T05:12:50.840Z,152.63
2017-10-26T05:15:18.365Z,85.10
2017-10-26T05:17:46.639Z,85.23
2017-10-26T05:20:14.111Z,156.23
2017-10-26T05:22:42.679Z,102.07
2017-10-26T05:25:10.160Z,284.50
2017-10-26T05:27:37.636Z,247.03
2017-10-26T05:30:05.156Z,303.60
2017-10-26T05:32:32.615Z,298.37
2017-10-26T05:35:00.111Z,346.80
2017-10-26T05:37:27.604Z,102.97
2017-10-26T05:39:55.076Z,163.03
2017-10-26T05:42:22.559Z,180.60
2017-10-26T05:44:50.786Z,66.53
2017-10-26T05:47:18.259Z,115.40
2017-10-26T05:49:45.740Z,145.03
2017-10-26T05:52:13.989Z,112.20
2017-10-26T05:54:41.453Z,94.33
2017-10-26T05:57:08.931Z,153.40
2017-10-26T05:59:37.160Z,162.20
2017-10-26T06:02:04.665Z,133.47
2017-10-26T06:04:32.899Z,81.77
2017-10-26T06:07:00.373Z,82.90
2017-10-26T06:09:27.863Z,70.90
2017-10-26T06:11:55.369Z,29.77
2017-10-26T06:14:22.853Z,109.27
2017-10-26T06:16:50.331Z,173.73
2017-10-26T06:19:18.589Z,61.00
2017-10-26T06:21:46.110Z,133.80
2017-10-26T06:24:13.601Z,113.23
2017-10-26T06:26:41.079Z,113.27
2017-10-26T06:29:08.589Z,120.10
2017-10-26T06:31:36.081Z,199.00
2017-10-26T06:34:03.550Z,87.67
2017-10-26T06:36:31.794Z,158.87
2017-10-26T06:38:59.279Z,130.53
2017-10-26T06:41:26.759Z,200.27
2017-10-26T06:43:54.259Z,265.30
2017-10-26T06:46:21.752Z,154.03
2017-10-26T06:48:49.261Z,76.60
2017-10-26T06:51:16.728Z,72.77
2017-10-26T06:53:44.200Z,105.80
2017-10-26T06:56:11.956Z,102.80
2017-10-26T06:58:39.455Z,116.00
2017-10-26T07:01:07.701Z,111.40
2017-10-26T07:03:35.179Z,48.00
2017-10-26T07:06:03.456Z,110.27
2017-10-26T07:08:30.952Z,103.80
2017-10-26T07:10:58.424Z,17.33
2017-10-26T07:13:25.926Z,51.83
2017-10-26T07:15:54.184Z,72.97
2017-10-26T07:18:21.649Z,76.07
2017-10-26T07:20:49.891Z,32.47
2017-10-26T07:23:18.377Z,84.77
2017-10-26T07:25:45.857Z,34.67
2017-10-26T07:28:13.303Z,49.07
2017-10-26T07:30:40.793Z,25.50
2017-10-26T07:33:08.280Z,29.03
2017-10-26T07:35:35.762Z,44.77
2017-10-26T07:38:03.219Z,94.40
2017-10-26T07:40:30.703Z,109.63
2017-10-26T07:42:58.179Z,188.27
2017-10-26T07:45:26.425Z,127.27
2017-10-26T07:47:53.915Z,101.20
2017-10-26T07:50:22.138Z,64.80
2017-10-26T07:52:49.610Z,87.50
2017-10-26T07:55:17.071Z,112.57
2017-10-26T07:57:44.833Z,193.27
2017-10-26T08:00:12.285Z,82.37
2017-10-26T08:02:39.746Z,58.10
2017-10-26T08:05:07.211Z,119.10
2017-10-26T08:07:34.670Z,63.37
2017-10-26T08:10:02.151Z,65.47
2017-10-26T08:12:30.373Z,38.97
2017-10-26T08:14:57.857Z,49.20
2017-10-26T08:17:25.321Z,76.20
2017-10-26T08:19:52.801Z,27.33
2017-10-26T08:22:20.282Z,25.47
2017-10-26T08:24:47.807Z,119.73
2017-10-26T08:27:15.329Z,68.03
2017-10-26T08:29:42.829Z,148.10
2017-10-26T08:32:10.332Z,87.33
2017-10-26T08:34:37.810Z,66.13
2017-10-26T08:37:05.577Z,49.57
2017-10-26T08:39:33.069Z,96.60
2017-10-26T08:42:00.572Z,72.67
2017-10-26T08:44:28.076Z,130.43
2017-10-26T08:46:55.539Z,86.37
2017-10-26T08:49:23.807Z,54.87
2017-10-26T08:51:52.069Z,129.57
2017-10-26T08:54:19.527Z,235.13
2017-10-26T08:56:47.899Z,99.57
2017-10-26T08:59:17.473Z,129.63
2017-10-26T09:01:45.021Z,45.10
2017-10-26T09:04:12.502Z,51.07
2017-10-26T09:06:40.022Z,79.37
2017-10-26T09:09:07.521Z,110.57
2017-10-26T09:11:35.039Z,118.73
2017-10-26T09:14:02.530Z,59.43
2017-10-26T09:16:30.020Z,54.37
2017-10-26T09:18:57.527Z,46.33
2017-10-26T09:21:25.007Z,24.93
2017-10-26T09:23:52.516Z,53.83
2017-10-26T09:26:20.758Z,28.80
2017-10-26T09:28:48.248Z,23.90
2017-10-26T09:31:16.513Z,21.20
2017-10-26T09:33:44.746Z,27.57
2017-10-26T09:36:12.251Z,18.70
2017-10-26T09:38:40.503Z,19.27
2017-10-26T09:41:08.052Z,23.83
2017-10-26T09:43:35.570Z,8.03
2017-10-26T09:46:03.055Z,9.03
2017-10-26T09:48:30.543Z,9.37
2017-10-26T09:50:58.016Z,10.13
2017-10-26T09:53:26.274Z,7.77
2017-10-26T09:55:53.786Z,26.47
2017-10-26T09:58:22.035Z,44.93
2017-10-26T10:00:49.587Z,15.70
2017-10-26T10:03:17.840Z,15.73
2017-10-26T10:05:45.594Z,14.03
2017-10-26T10:08:13.077Z,15.97
2017-10-26T10:10:40.593Z,12.87
2017-10-26T10:13:08.073Z,12.83
2017-10-26T10:15:35.570Z,16.17
2017-10-26T10:18:03.082Z,8.17
2017-10-26T10:20:30.537Z,9.90
2017-10-26T10:22:58.025Z,22.03
2017-10-26T10:25:26.273Z,15.77
2017-10-26T10:27:53.869Z,10.83
2017-10-26T10:30:21.404Z,9.37
2017-10-26T10:32:48.881Z,10.90
2017-10-26T10:35:17.152Z,10.10
2017-10-26T10:37:45.400Z,12.47
2017-10-26T10:40:12.876Z,10.20
2017-10-26T10:42:40.346Z,9.90
2017-10-26T10:45:07.833Z,12.00
2017-10-26T10:47:36.634Z,10.73
2017-10-26T10:50:04.108Z,11.90
2017-10-26T10:52:31.677Z,14.13
2017-10-26T10:54:59.161Z,11.80
2017-10-26T10:57:27.390Z,13.60
2017-10-26T11:00:00.473Z,11.20
2017-10-26T11:02:27.941Z,17.03
2017-10-26T11:04:55.431Z,11.53
2017-10-26T11:07:22.916Z,14.40
2017-10-26T11:09:50.424Z,15.10
2017-10-26T11:12:17.925Z,10.60
2017-10-26T11:14:45.447Z,13.77
2017-10-26T11:17:12.944Z,13.40
2017-10-26T11:19:40.420Z,13.87
2017-10-26T11:22:07.901Z,16.00
2017-10-26T11:24:35.376Z,15.43
2017-10-26T11:27:03.903Z,17.57
2017-10-26T11:29:31.375Z,17.90
2017-10-26T11:31:58.870Z,13.47
2017-10-26T11:34:26.357Z,15.77
2017-10-26T11:36:54.608Z,18.00
2017-10-26T11:39:22.054Z,14.50
2017-10-26T11:41:49.563Z,16.90
2017-10-26T11:44:17.811Z,19.43
2017-10-26T11:46:45.295Z,21.93
2017-10-26T11:49:12.783Z,19.10
2017-10-26T11:51:41.038Z,20.77
2017-10-26T11:54:08.544Z,20.83
2017-10-26T11:56:36.028Z,22.93
2017-10-26T11:59:03.544Z,21.27
2017-10-26T12:01:31.039Z,22.37
2017-10-26T12:03:59.276Z,22.23
2017-10-26T12:06:26.783Z,26.90
2017-10-26T12:08:55.019Z,22.23
2017-10-26T12:11:22.664Z,20.80
2017-10-26T12:13:50.177Z,19.50
2017-10-26T12:16:17.652Z,20.50
2017-10-26T12:18:45.142Z,26.47
2017-10-26T12:21:12.624Z,21.13
2017-10-26T12:23:40.170Z,25.60
2017-10-26T12:26:07.658Z,22.07
2017-10-26T12:28:35.883Z,21.80
2017-10-26T12:31:03.399Z,21.37
2017-10-26T12:33:31.635Z,25.00
2017-10-26T12:35:59.138Z,23.17
2017-10-26T12:38:26.635Z,24.70
2017-10-26T12:40:54.138Z,22.97
2017-10-26T12:43:21.618Z,23.77
2017-10-26T12:45:49.126Z,21.70
2017-10-26T12:48:16.615Z,22.10
2017-10-26T12:50:45.657Z,18.00
2017-10-26T12:53:13.163Z,20.03
2017-10-26T12:55:41.408Z,19.27
2017-10-26T12:58:08.924Z,21.63
2017-10-26T13:00:36.391Z,19.07
2017-10-26T13:03:03.901Z,19.60
2017-10-26T13:05:31.389Z,16.60
2017-10-26T13:07:58.876Z,22.40
2017-10-26T13:10:26.346Z,19.17
2017-10-26T13:12:53.846Z,17.30
2017-10-26T13:15:22.105Z,17.20
2017-10-26T13:17:49.614Z,16.10
2017-10-26T13:20:17.142Z,17.33
2017-10-26T13:22:44.649Z,16.90
2017-10-26T13:25:12.453Z,14.97
2017-10-26T13:27:39.939Z,15.90
2017-10-26T13:30:07.424Z,19.87
2017-10-26T13:32:34.930Z,15.57
2017-10-26T13:35:03.205Z,14.97
2017-10-26T13:37:31.455Z,15.20
2017-10-26T13:39:58.946Z,14.50
2017-10-26T13:42:26.449Z,14.50
2017-10-26T13:44:53.974Z,15.53
2017-10-26T13:47:21.468Z,15.30
2017-10-26T13:49:48.980Z,17.57
2017-10-26T13:52:17.261Z,14.13
2017-10-26T13:54:45.535Z,16.53
2017-10-26T13:57:13.813Z,15.93
2017-10-26T13:59:41.312Z,20.40
2017-10-26T14:02:08.793Z,15.40
2017-10-26T14:04:36.306Z,19.03
2017-10-26T14:07:03.785Z,16.87
2017-10-26T14:09:31.556Z,15.70
2017-10-26T14:11:59.026Z,15.13
2017-10-26T14:14:26.491Z,15.57
2017-10-26T14:16:54.003Z,15.73
2017-10-26T14:19:21.478Z,17.40
2017-10-26T14:21:49.390Z,14.60
2017-10-26T14:24:17.664Z,14.80
2017-10-26T14:26:45.920Z,16.20
2017-10-26T14:29:13.419Z,16.83
2017-10-26T14:31:40.900Z,19.43
2017-10-26T14:34:08.393Z,17.37
2017-10-26T14:36:35.896Z,16.10
2017-10-26T14:39:03.357Z,19.37
2017-10-26T14:41:30.889Z,15.87
2017-10-26T14:43:59.138Z,17.53
2017-10-26T14:46:26.663Z,16.60
2017-10-26T14:48:54.127Z,17.43
2017-10-26T14:51:21.864Z,16.50
2017-10-26T14:53:49.339Z,16.93
2017-10-26T14:58:48.872Z,18.67
2017-10-26T15:01:16.344Z,16.23
2017-10-26T15:03:43.853Z,17.97
2017-10-26T15:06:11.357Z,19.17
2017-10-26T15:08:39.152Z,17.37
2017-10-26T15:11:07.405Z,18.77
2017-10-26T15:13:34.911Z,17.33
2017-10-26T15:16:02.402Z,16.50
2017-10-26T15:18:30.643Z,17.50
2017-10-26T15:20:58.153Z,17.60
2017-10-26T15:23:25.665Z,15.73
2017-10-26T15:25:53.159Z,15.60
2017-10-26T15:28:20.671Z,15.83
2017-10-26T15:30:48.145Z,17.60
2017-10-26T15:33:15.635Z,16.77
2017-10-26T15:35:43.161Z,14.17
2017-10-26T15:38:10.988Z,14.63
2017-10-26T15:40:38.506Z,17.00
2017-10-26T15:43:05.982Z,15.17
2017-10-26T15:45:33.478Z,15.33
2017-10-26T15:48:01.009Z,21.70
2017-10-26T15:50:28.529Z,16.67
2017-10-26T15:52:56.038Z,20.47
2017-10-26T15:55:23.534Z,24.27
2017-10-26T15:57:51.031Z,25.20
2017-10-26T16:00:18.522Z,25.30
2017-10-26T16:02:46.801Z,19.10
2017-10-26T16:05:15.073Z,17.63
2017-10-26T16:07:43.661Z,18.23
2017-10-26T16:10:11.934Z,21.40
2017-10-26T16:12:39.422Z,17.60
2017-10-26T16:15:06.957Z,16.47
2017-10-26T16:17:35.221Z,19.57
2017-10-26T16:20:03.520Z,18.23
2017-10-26T16:22:31.059Z,21.30
2017-10-26T16:24:58.552Z,18.20
2017-10-26T16:27:26.046Z,19.17
2017-10-26T16:29:53.529Z,20.67
2017-10-26T16:32:21.810Z,20.80
2017-10-26T16:34:50.075Z,19.53
2017-10-26T16:37:18.355Z,18.03
2017-10-26T16:39:45.839Z,19.80
2017-10-26T16:42:13.322Z,20.10
2017-10-26T16:44:40.839Z,21.20
2017-10-26T16:47:09.084Z,26.67
2017-10-26T16:49:36.608Z,24.50
2017-10-26T16:52:06.247Z,23.77
2017-10-26T16:54:33.791Z,20.63
2017-10-26T16:57:01.823Z,25.50
2017-10-26T16:59:29.313Z,20.77
2017-10-26T17:01:56.861Z,17.67
2017-10-26T17:04:24.369Z,23.13
2017-10-26T17:06:52.907Z,23.50
2017-10-26T17:09:22.075Z,23.37
2017-10-26T17:11:51.045Z,22.70
2017-10-26T17:14:20.557Z,23.33
2017-10-26T17:16:48.823Z,24.60
2017-10-26T17:19:16.408Z,24.20
2017-10-26T17:21:45.245Z,25.63
2017-10-26T17:24:12.781Z,24.37
2017-10-26T17:26:41.026Z,23.50
2017-10-26T17:29:08.545Z,27.60
2017-10-26T17:31:36.058Z,34.53
2017-10-26T17:34:03.551Z,28.60
2017-10-26T17:36:31.053Z,31.70
2017-10-26T17:38:59.324Z,30.83
2017-10-26T17:41:27.576Z,37.80
2017-10-26T17:43:55.071Z,45.63
2017-10-26T17:46:23.354Z,45.77
2017-10-26T17:48:50.849Z,45.57
2017-10-26T17:51:18.399Z,44.30
2017-10-26T17:53:45.879Z,30.23
2017-10-26T17:56:13.408Z,31.00
2017-10-26T17:58:40.892Z,35.43
2017-10-26T18:01:08.401Z,30.40
2017-10-26T18:03:36.019Z,37.20
2017-10-26T18:06:03.595Z,39.20
2017-10-26T18:08:31.869Z,36.40
2017-10-26T18:11:00.124Z,37.30
2017-10-26T18:13:28.187Z,34.17
2017-10-26T18:15:55.768Z,34.87
2017-10-26T18:18:23.251Z,31.27
2017-10-26T18:23:25.641Z,32.80
2017-10-26T18:25:53.174Z,31.77
2017-10-26T18:28:20.665Z,33.37
2017-10-26T18:30:48.571Z,32.87
2017-10-26T18:33:16.119Z,32.87
2017-10-26T18:35:43.616Z,34.57
2017-10-26T18:38:11.157Z,39.67
2017-10-26T18:40:38.653Z,38.60
2017-10-26T18:43:06.152Z,34.00
2017-10-26T18:45:33.669Z,38.97
2017-10-26T18:48:01.236Z,34.30
2017-10-26T18:50:28.734Z,37.20
2017-10-26T18:52:56.728Z,31.07
2017-10-26T18:55:24.231Z,30.10
2017-10-26T18:57:51.913Z,32.83
2017-10-26T19:00:19.413Z,31.20
2017-10-26T19:02:46.927Z,33.50
2017-10-26T19:05:14.388Z,36.20
2017-10-26T19:07:41.891Z,34.37
2017-10-26T19:10:10.158Z,40.40
2017-10-26T19:12:37.648Z,78.17
2017-10-26T19:15:05.145Z,57.73
2017-10-26T19:17:32.619Z,72.37
2017-10-26T19:20:00.225Z,49.53
2017-10-26T19:22:27.724Z,33.43
2017-10-26T19:24:55.221Z,33.67
2017-10-26T19:27:22.737Z,31.07
2017-10-26T19:29:50.239Z,32.10
2017-10-26T19:32:18.491Z,31.80
2017-10-26T19:34:45.972Z,37.23
2017-10-26T19:37:14.247Z,31.63
2017-10-26T19:39:42.489Z,35.53
2017-10-26T19:42:09.966Z,33.00
2017-10-26T19:44:37.458Z,37.40
2017-10-26T19:47:05.001Z,34.90
2017-10-26T19:49:32.485Z,38.17
2017-10-26T19:52:00.890Z,33.00
2017-10-26T19:54:28.393Z,43.53
2017-10-26T19:56:56.625Z,29.43
2017-10-26T19:59:24.113Z,32.00
2017-10-26T20:01:51.625Z,43.90
2017-10-26T20:04:19.106Z,46.43
2017-10-26T20:06:46.593Z,47.80
2017-10-26T20:09:14.103Z,37.33
2017-10-26T20:11:41.573Z,36.10
2017-10-26T20:14:09.528Z,40.57
2017-10-26T20:16:37.008Z,34.40
2017-10-26T20:19:04.499Z,36.07
2017-10-26T20:21:32.027Z,39.10
2017-10-26T20:23:59.532Z,41.00
2017-10-26T20:26:27.048Z,45.00
2017-10-26T20:28:54.517Z,43.90
2017-10-26T20:31:22.009Z,53.07
2017-10-26T20:33:50.137Z,42.50
2017-10-26T20:36:17.685Z,43.97
2017-10-26T20:38:45.207Z,47.83
2017-10-26T20:41:12.697Z,45.67
2017-10-26T20:43:40.191Z,43.03
2017-10-26T20:46:08.440Z,44.53
2017-10-26T20:48:35.951Z,50.17
2017-10-26T20:51:09.158Z,48.17
2017-10-26T20:53:42.436Z,50.40
2017-10-26T20:56:15.565Z,48.03
2017-10-26T20:58:49.004Z,46.33
2017-10-26T21:01:22.949Z,53.70
2017-10-26T21:03:56.187Z,62.10
2017-10-26T21:06:24.444Z,53.73
2017-10-26T21:08:57.516Z,51.87
2017-10-26T21:11:30.545Z,52.17
2017-10-26T21:14:03.622Z,56.80
2017-10-26T21:16:31.112Z,55.47
2017-10-26T21:18:58.600Z,51.47
2017-10-26T21:21:26.105Z,63.87
2017-10-26T21:23:54.354Z,54.90
2017-10-26T21:26:21.855Z,55.40
2017-10-26T21:28:49.361Z,59.97
2017-10-26T21:31:17.705Z,57.60
2017-10-26T21:33:51.012Z,56.90
2017-10-26T21:36:18.487Z,54.93
2017-10-26T21:38:45.975Z,53.53
2017-10-26T21:41:13.611Z,51.63
2017-10-26T21:43:41.092Z,58.80
2017-10-26T21:46:08.604Z,50.70
2017-10-26T21:48:36.073Z,52.23
2017-10-26T21:51:03.543Z,52.87
2017-10-26T21:53:31.039Z,49.20
2017-10-26T21:55:59.282Z,54.13
2017-10-26T21:58:26.772Z,52.07
2017-10-26T22:00:55.044Z,56.63
2017-10-26T22:03:23.279Z,55.43
2017-10-26T22:05:50.767Z,55.97
2017-10-26T22:08:19.027Z,56.73
2017-10-26T22:10:46.481Z,55.33
2017-10-26T22:13:13.999Z,55.30
2017-10-26T22:15:41.476Z,58.30
2017-10-26T22:18:09.770Z,60.50
2017-10-26T22:20:37.228Z,58.87
2017-10-26T22:23:04.688Z,67.63
2017-10-26T22:25:32.178Z,61.87
2017-10-26T22:27:59.676Z,63.30
2017-10-26T22:30:27.959Z,66.20
2017-10-26T22:32:55.453Z,60.47
2017-10-26T22:35:22.943Z,54.60
2017-10-26T22:37:50.521Z,60.30
2017-10-26T22:40:18.829Z,57.00
2017-10-26T22:42:46.317Z,57.23
2017-10-26T22:45:14.561Z,55.53
2017-10-26T22:47:42.061Z,51.07
2017-10-26T22:50:09.539Z,49.30
2017-10-26T22:52:37.009Z,63.20
2017-10-26T22:55:04.535Z,49.20
2017-10-26T22:57:32.026Z,52.00
2017-10-26T23:00:02.358Z,49.37
2017-10-26T23:02:29.872Z,48.00
2017-10-26T23:04:57.369Z,46.70
2017-10-26T23:07:24.873Z,46.47
2017-10-26T23:09:52.366Z,50.30
2017-10-26T23:12:19.868Z,47.23
2017-10-26T23:14:47.349Z,55.77
2017-10-26T23:17:14.849Z,55.60
2017-10-26T23:19:42.339Z,54.27
2017-10-26T23:22:09.829Z,51.17
2017-10-26T23:24:37.316Z,55.40
2017-10-26T23:27:04.792Z,56.57
2017-10-26T23:29:32.287Z,56.97
2017-10-26T23:31:59.745Z,51.13
2017-10-26T23:34:27.233Z,54.43
2017-10-26T23:36:54.710Z,54.10
2017-10-26T23:39:22.433Z,59.70
2017-10-26T23:41:49.930Z,50.70
2017-10-26T23:44:17.449Z,54.77
2017-10-26T23:46:44.947Z,51.90
2017-10-26T23:49:12.392Z,53.87
2017-10-26T23:51:39.875Z,57.10
2017-10-26T23:54:07.337Z,58.70
2017-10-26T23:56:34.836Z,54.97
2017-10-26T23:59:03.062Z,55.20
